Ginga Jaguar — 3ECS4 — position and weather

sailwx.info

Track history (hours):
 
Tides and Currents Weather Stations Pressure Air Temp Water Temp Dewpoint Dewpoint Depression Visibility Wind Speed Wind Dir Waves Ship Positions

Ginga Jaguar

Last reported at 2018-Jun-04 09:09 UTC. Time now 2018-Jun-20 12:44 UTC.
Position N 35°02' E 129°04'.
Warning: this ship's position is 16 days out of date.

Length 160 m; draft 10.1 m.

Type: Ship (hazmat cat B). MMSI: 371451000.

Date/timePositionNaut miles runAvg speedWind from/ knotsBaromVisibWave heightAir tempDewpointWater temp
2018-Jun-04 09:09N 35°02' E 129°04'0 0.0
2018-Jun-03 22:14N 35°02' E 129°05'41411.5
2018-Jun-02 10:03N 31°06' E 122°18'114.2
2018-Jun-02 10:00N 31°07' E 122°17'1114.5
2018-Jun-02 09:17N 31°13' E 122°07'414.4
2018-Jun-02 08:58N 31°14' E 122°02'713.9
2018-Jun-02 08:30N 31°16' E 121°55'712.7
2018-Jun-02 07:59N 31°18' E 121°47'1710.6
2018-Jun-02 06:22N 31°26' E 121°30'4 8.2
2018-Jun-02 05:52N 31°29' E 121°26'4 9.7
2018-Jun-02 05:30N 31°31' E 121°23'510.0
2018-Jun-02 05:00N 31°34' E 121°19'611.6
2018-Jun-02 04:30N 31°39' E 121°14'612.8
2018-Jun-02 04:00N 31°42' E 121°08'3411.1
2018-Jun-02 00:58N 32°00' E 120°35'612.4
2018-Jun-02 00:29N 32°02' E 120°28'6 0.1
2018-May-31 05:31N 31°60' E 120°22'3 9.4
2018-May-31 05:13N 32°01' E 120°24'2 8.4
2018-May-31 04:59N 32°02' E 120°26'3 7.0
2018-May-31 04:30N 32°02' E 120°30'78 3.6
2018-May-30 06:40N 31°18' E 121°47'1012.1
2018-May-30 05:51N 31°15' E 121°58'512.3
2018-May-30 05:28N 31°14' E 122°03'1112.6
2018-May-30 04:38N 31°09' E 122°14'213.4
2018-May-30 04:29N 31°08' E 122°16'611.5
2018-May-30 04:00N 31°06' E 122°22'4 6.6
2018-May-30 03:21N 31°07' E 122°27'2 5.8
2018-May-30 03:00N 31°08' E 122°29'5 9.0
2018-May-30 02:27N 31°07' E 122°35'511.7
2018-May-30 02:00N 31°07' E 122°41'0 0.4
2018-May-30 01:30N 31°07' E 122°41'610.6
2018-May-30 00:58N 31°08' E 122°47'3 6.9
2018-May-30 00:30N 31°10' E 122°50'0 0.0
2018-May-29 13:41N 31°10' E 122°50'0 0.0
2018-May-29 13:23N 31°10' E 122°50'0 0.1
2018-May-29 12:59N 31°10' E 122°50'0 0.1
2018-May-29 12:29N 31°10' E 122°50'0 0.1
2018-May-29 11:20N 31°10' E 122°50'0 0.2
2018-May-29 10:50N 31°10' E 122°50'0 0.1
2018-May-29 10:26N 31°10' E 122°50'0 0.0
2018-May-29 09:59N 31°10' E 122°50'0 0.2
2018-May-29 09:29N 31°10' E 122°50'2 4.9
2018-May-29 09:00N 31°08' E 122°52'4 8.9
2018-May-29 08:30N 31°09' E 122°57'4 7.8
2018-May-29 08:00N 31°10' E 123°01'611.8
2018-May-29 07:30N 31°07' E 123°07'  
Track history (hours):
 
Tides and Currents Weather Stations Pressure Air Temp Water Temp Dewpoint Dewpoint Depression Visibility Wind Speed Wind Dir Waves Ship Positions

Ginga Jaguar

Last reported at 2018-Jun-04 09:09 UTC. Time now 2018-Jun-20 12:44 UTC.
Position N 35°02' E 129°04'.
Warning: this ship's position is 16 days out of date.

Length 160 m; draft 10.1 m.

Type: Ship (hazmat cat B). MMSI: 371451000.

Date/timePositionNaut miles runAvg speedWind from/ knotsBaromVisibWave heightAir tempDewpointWater temp
2018-Jun-04 09:09N 35°02' E 129°04'0 0.0
2018-Jun-03 22:14N 35°02' E 129°05'41411.5
2018-Jun-02 10:03N 31°06' E 122°18'114.2
2018-Jun-02 10:00N 31°07' E 122°17'1114.5
2018-Jun-02 09:17N 31°13' E 122°07'414.4
2018-Jun-02 08:58N 31°14' E 122°02'713.9
2018-Jun-02 08:30N 31°16' E 121°55'712.7
2018-Jun-02 07:59N 31°18' E 121°47'1710.6
2018-Jun-02 06:22N 31°26' E 121°30'4 8.2
2018-Jun-02 05:52N 31°29' E 121°26'4 9.7
2018-Jun-02 05:30N 31°31' E 121°23'510.0
2018-Jun-02 05:00N 31°34' E 121°19'611.6
2018-Jun-02 04:30N 31°39' E 121°14'612.8
2018-Jun-02 04:00N 31°42' E 121°08'3411.1
2018-Jun-02 00:58N 32°00' E 120°35'612.4
2018-Jun-02 00:29N 32°02' E 120°28'6 0.1
2018-May-31 05:31N 31°60' E 120°22'3 9.4
2018-May-31 05:13N 32°01' E 120°24'2 8.4
2018-May-31 04:59N 32°02' E 120°26'3 7.0
2018-May-31 04:30N 32°02' E 120°30'78 3.6
2018-May-30 06:40N 31°18' E 121°47'1012.1
2018-May-30 05:51N 31°15' E 121°58'512.3
2018-May-30 05:28N 31°14' E 122°03'1112.6
2018-May-30 04:38N 31°09' E 122°14'213.4
2018-May-30 04:29N 31°08' E 122°16'611.5
2018-May-30 04:00N 31°06' E 122°22'4 6.6
2018-May-30 03:21N 31°07' E 122°27'2 5.8
2018-May-30 03:00N 31°08' E 122°29'5 9.0
2018-May-30 02:27N 31°07' E 122°35'511.7
2018-May-30 02:00N 31°07' E 122°41'0 0.4
2018-May-30 01:30N 31°07' E 122°41'610.6
2018-May-30 00:58N 31°08' E 122°47'3 6.9
2018-May-30 00:30N 31°10' E 122°50'0 0.0
2018-May-29 13:41N 31°10' E 122°50'0 0.0
2018-May-29 13:23N 31°10' E 122°50'0 0.1
2018-May-29 12:59N 31°10' E 122°50'0 0.1
2018-May-29 12:29N 31°10' E 122°50'0 0.1
2018-May-29 11:20N 31°10' E 122°50'0 0.2
2018-May-29 10:50N 31°10' E 122°50'0 0.1
2018-May-29 10:26N 31°10' E 122°50'0 0.0
2018-May-29 09:59N 31°10' E 122°50'0 0.2
2018-May-29 09:29N 31°10' E 122°50'2 4.9
2018-May-29 09:00N 31°08' E 122°52'4 8.9
2018-May-29 08:30N 31°09' E 122°57'4 7.8
2018-May-29 08:00N 31°10' E 123°01'611.8
2018-May-29 07:30N 31°07' E 123°07'  

Dump ship's entire track history